Terminal Aerodrome Forecast
Issued by NWS Charleston, WV

Current Version | Previous Version | Graphics & Text | Print | Product List | Glossary On
Versions: 1 2 3 4 5 6 7 8 9 10 11 12 13 14 15 16 17 18 19 20 21 22 23 24 25
000
FTUS41 KRLX 030523
TAFEKN
TAF
KEKN 030523Z 0306/0406 00000KT P6SM BKN015 OVC035
     FM030800 00000KT 4SM BR OVC008
     FM031700 29005KT P6SM BKN012
     FM032000 27006KT P6SM BKN015=

USA.gov is the U.S. government's official web portal to all federal, state and local government web resources and services.